SWR1251 ESSA-LSZH
Flight info
| Callsign | SWR1251 |
|---|---|
| Flight time | N/A |
| Altitude | 38000 |
| Route | NOSLI N850 ABAMA DCT MAKEL DCT OTMON DCT SWALM DCT OMOGI/N0435F390 T721 LAMGO/N0368F270 T721 RILAX |
| Aircraft | A20N/M-SDE2E3FGHIRWXY/LB1 |
Departure
| Time | 2026-05-05 16:58 |
|---|---|
| Airport | Stockholm-Arlanda Airport (ESSA) |
Arrival
| Time | N/A |
|---|---|
| Airport | Zürich Airport (LSZH) |
| Time | Latitude | Longitude | Altitude | Speed | Heading |
|---|---|---|---|---|---|
| 2026-05-05 16:35 | 59.65135 | 17.92796 | 111 ft | 0 kts | 192° |
| 2026-05-05 16:49 | 59.65136 | 17.92796 | 111 ft | 1 kts | 192° |
| 2026-05-05 16:49 | 59.65160 | 17.92806 | 111 ft | 4 kts | 189° |
| 2026-05-05 16:49 | 59.65186 | 17.92814 | 108 ft | 4 kts | 193° |
| 2026-05-05 16:50 | 59.65209 | 17.92835 | 110 ft | 4 kts | 234° |
| 2026-05-05 16:50 | 59.65216 | 17.92873 | 108 ft | 0 kts | 275° |
| 2026-05-05 16:53 | 59.65216 | 17.92863 | 111 ft | 3 kts | 275° |
| 2026-05-05 16:53 | 59.65226 | 17.92779 | 111 ft | 10 kts | 287° |
| 2026-05-05 16:53 | 59.65257 | 17.92607 | 111 ft | 16 kts | 289° |
| 2026-05-05 16:53 | 59.65260 | 17.92422 | 110 ft | 9 kts | 219° |
| 2026-05-05 16:54 | 59.65192 | 17.92380 | 111 ft | 13 kts | 186° |
| 2026-05-05 16:54 | 59.65080 | 17.92338 | 111 ft | 20 kts | 191° |
| 2026-05-05 16:54 | 59.64922 | 17.92278 | 111 ft | 26 kts | 189° |
| 2026-05-05 16:54 | 59.64729 | 17.92205 | 111 ft | 30 kts | 189° |
| 2026-05-05 16:55 | 59.64515 | 17.92127 | 111 ft | 32 kts | 187° |
| 2026-05-05 16:55 | 59.64370 | 17.92090 | 113 ft | 13 kts | 187° |
| 2026-05-05 16:55 | 59.64329 | 17.91943 | 112 ft | 16 kts | 264° |
| 2026-05-05 16:55 | 59.64267 | 17.91879 | 113 ft | 11 kts | 189° |
| 2026-05-05 16:56 | 59.64178 | 17.91847 | 114 ft | 15 kts | 191° |
| 2026-05-05 16:56 | 59.64063 | 17.91802 | 112 ft | 19 kts | 191° |
| 2026-05-05 16:56 | 59.63912 | 17.91755 | 110 ft | 25 kts | 191° |
| 2026-05-05 16:56 | 59.63766 | 17.91573 | 106 ft | 26 kts | 224° |
| 2026-05-05 16:57 | 59.63733 | 17.91449 | 108 ft | 3 kts | 253° |
| 2026-05-05 16:57 | 59.63734 | 17.91378 | 110 ft | 7 kts | 288° |
| 2026-05-05 16:57 | 59.63785 | 17.91351 | 109 ft | 11 kts | 27° |
| 2026-05-05 16:57 | 59.63869 | 17.91379 | 109 ft | 14 kts | 8° |
| 2026-05-05 16:58 | 59.64099 | 17.91470 | 106 ft | 71 kts | 14° |
| 2026-05-05 16:58 | 59.64793 | 17.91710 | 107 ft | 128 kts | 9° |
| 2026-05-05 16:58 | 59.65784 | 17.92110 | 381 ft | 147 kts | 9° |
| 2026-05-05 16:58 | 59.66793 | 17.92540 | 1014 ft | 157 kts | 5° |
| 2026-05-05 16:59 | 59.67905 | 17.92917 | 1613 ft | 165 kts | 2° |
| 2026-05-05 16:59 | 59.69035 | 17.93333 | 2218 ft | 171 kts | 3° |
| 2026-05-05 16:59 | 59.70259 | 17.93364 | 2599 ft | 183 kts | 340° |
| 2026-05-05 16:59 | 59.71436 | 17.92253 | 3067 ft | 193 kts | 312° |
| 2026-05-05 17:00 | 59.72153 | 17.90072 | 3979 ft | 189 kts | 284° |
| 2026-05-05 17:00 | 59.72206 | 17.87508 | 5032 ft | 190 kts | 258° |
| 2026-05-05 17:00 | 59.71587 | 17.85141 | 5997 ft | 201 kts | 237° |
| 2026-05-05 17:00 | 59.70726 | 17.82917 | 6974 ft | 204 kts | 237° |
| 2026-05-05 17:01 | 59.69871 | 17.80722 | 7975 ft | 205 kts | 237° |
| 2026-05-05 17:01 | 59.69039 | 17.78425 | 8977 ft | 206 kts | 243° |
| 2026-05-05 17:01 | 59.68279 | 17.75957 | 9780 ft | 222 kts | 231° |
| 2026-05-05 17:01 | 59.66919 | 17.74155 | 10288 ft | 251 kts | 210° |
| 2026-05-05 17:02 | 59.65251 | 17.72666 | 10787 ft | 274 kts | 209° |
| 2026-05-05 17:02 | 59.63493 | 17.70912 | 11230 ft | 294 kts | 216° |
| 2026-05-05 17:02 | 59.61735 | 17.68592 | 11646 ft | 313 kts | 220° |
| 2026-05-05 17:02 | 59.59946 | 17.66031 | 12460 ft | 319 kts | 220° |
| 2026-05-05 17:03 | 59.58140 | 17.63447 | 13439 ft | 322 kts | 220° |
| 2026-05-05 17:03 | 59.56308 | 17.60872 | 14301 ft | 325 kts | 220° |
| 2026-05-05 17:03 | 59.54450 | 17.58301 | 15195 ft | 327 kts | 220° |
| 2026-05-05 17:03 | 59.52582 | 17.55739 | 16055 ft | 329 kts | 220° |
| 2026-05-05 17:04 | 59.50694 | 17.53164 | 16898 ft | 331 kts | 220° |
| 2026-05-05 17:04 | 59.48794 | 17.50578 | 17742 ft | 333 kts | 220° |
| 2026-05-05 17:04 | 59.46850 | 17.47936 | 18511 ft | 336 kts | 220° |
| 2026-05-05 17:04 | 59.44940 | 17.45345 | 19195 ft | 339 kts | 220° |
| 2026-05-05 17:05 | 59.42988 | 17.42700 | 19878 ft | 343 kts | 221° |
| 2026-05-05 17:05 | 59.41015 | 17.40030 | 20560 ft | 346 kts | 221° |
| 2026-05-05 17:05 | 59.39030 | 17.37348 | 21220 ft | 349 kts | 221° |
| 2026-05-05 17:05 | 59.37014 | 17.34627 | 21880 ft | 353 kts | 221° |
| 2026-05-05 17:06 | 59.34984 | 17.31891 | 22533 ft | 356 kts | 221° |
| 2026-05-05 17:06 | 59.32931 | 17.29130 | 23187 ft | 360 kts | 221° |
| 2026-05-05 17:06 | 59.30859 | 17.26346 | 23740 ft | 364 kts | 221° |
| 2026-05-05 17:06 | 59.28759 | 17.23529 | 24242 ft | 368 kts | 221° |
| 2026-05-05 17:07 | 59.26637 | 17.20686 | 24744 ft | 371 kts | 221° |
| 2026-05-05 17:07 | 59.24498 | 17.17825 | 25239 ft | 375 kts | 221° |
| 2026-05-05 17:07 | 59.22336 | 17.14939 | 25713 ft | 379 kts | 221° |
| 2026-05-05 17:07 | 59.20144 | 17.12016 | 26193 ft | 383 kts | 221° |
| 2026-05-05 17:08 | 59.17938 | 17.09078 | 26649 ft | 387 kts | 221° |
| 2026-05-05 17:08 | 59.15707 | 17.06113 | 27120 ft | 390 kts | 221° |
| 2026-05-05 17:08 | 59.13455 | 17.03124 | 27550 ft | 394 kts | 221° |
| 2026-05-05 17:08 | 59.11180 | 17.00110 | 27999 ft | 397 kts | 221° |
| 2026-05-05 17:09 | 59.08890 | 16.97081 | 28418 ft | 400 kts | 221° |
| 2026-05-05 17:09 | 59.06576 | 16.94027 | 28845 ft | 403 kts | 221° |
| 2026-05-05 17:09 | 59.04245 | 16.90954 | 29217 ft | 407 kts | 221° |
| 2026-05-05 17:09 | 59.01894 | 16.87860 | 29606 ft | 410 kts | 220° |
| 2026-05-05 17:10 | 58.99525 | 16.84748 | 29984 ft | 413 kts | 220° |
| 2026-05-05 17:10 | 58.97134 | 16.81613 | 30354 ft | 415 kts | 220° |
| 2026-05-05 17:10 | 58.94765 | 16.78513 | 30713 ft | 417 kts | 220° |
| 2026-05-05 17:10 | 58.92320 | 16.75318 | 31100 ft | 419 kts | 220° |
| 2026-05-05 17:11 | 58.89904 | 16.72168 | 31546 ft | 419 kts | 220° |
| 2026-05-05 17:11 | 58.87495 | 16.69033 | 32045 ft | 417 kts | 220° |
| 2026-05-05 17:11 | 58.85085 | 16.65903 | 32515 ft | 416 kts | 220° |
| 2026-05-05 17:11 | 58.82683 | 16.62786 | 32966 ft | 415 kts | 220° |
| 2026-05-05 17:12 | 58.80289 | 16.59685 | 33416 ft | 414 kts | 220° |
| 2026-05-05 17:12 | 58.77898 | 16.56593 | 33861 ft | 413 kts | 220° |
| 2026-05-05 17:12 | 58.75518 | 16.53520 | 34198 ft | 413 kts | 220° |
| 2026-05-05 17:12 | 58.73129 | 16.50437 | 34499 ft | 414 kts | 220° |
| 2026-05-05 17:13 | 58.70731 | 16.47349 | 34784 ft | 414 kts | 220° |
| 2026-05-05 17:13 | 58.68341 | 16.44275 | 35092 ft | 414 kts | 220° |
| 2026-05-05 17:13 | 58.65941 | 16.41196 | 35379 ft | 415 kts | 219° |
| 2026-05-05 17:13 | 58.63537 | 16.38117 | 35659 ft | 415 kts | 219° |
| 2026-05-05 17:14 | 58.61130 | 16.35040 | 35934 ft | 416 kts | 219° |
| 2026-05-05 17:14 | 58.58726 | 16.31972 | 36208 ft | 416 kts | 219° |
| 2026-05-05 17:14 | 58.56319 | 16.28905 | 36479 ft | 416 kts | 219° |
| 2026-05-05 17:14 | 58.53906 | 16.25834 | 36741 ft | 416 kts | 219° |
| 2026-05-05 17:15 | 58.51494 | 16.22772 | 37000 ft | 416 kts | 219° |
| 2026-05-05 17:15 | 58.49076 | 16.19708 | 37258 ft | 417 kts | 219° |
| 2026-05-05 17:15 | 58.46660 | 16.16650 | 37506 ft | 417 kts | 219° |
| 2026-05-05 17:15 | 58.44240 | 16.13593 | 37748 ft | 417 kts | 218° |
| 2026-05-05 17:16 | 58.41815 | 16.10534 | 37883 ft | 417 kts | 218° |
| 2026-05-05 17:16 | 58.39400 | 16.07495 | 37886 ft | 416 kts | 218° |
| 2026-05-05 17:16 | 58.34579 | 16.01443 | 37884 ft | 415 kts | 218° |
| 2026-05-05 17:17 | 58.29752 | 15.95400 | 37882 ft | 415 kts | 218° |
| 2026-05-05 17:17 | 58.24918 | 15.89369 | 37885 ft | 416 kts | 218° |
| 2026-05-05 17:18 | 58.20077 | 15.83351 | 37887 ft | 416 kts | 218° |
| 2026-05-05 17:18 | 58.15267 | 15.77391 | 37886 ft | 416 kts | 218° |
| 2026-05-05 17:19 | 58.10425 | 15.71410 | 37887 ft | 416 kts | 218° |
| 2026-05-05 17:19 | 58.05582 | 15.65449 | 37888 ft | 415 kts | 218° |
| 2026-05-05 17:20 | 58.00733 | 15.59493 | 37887 ft | 415 kts | 218° |
| 2026-05-05 17:20 | 57.95874 | 15.53601 | 37882 ft | 416 kts | 217° |
| 2026-05-05 17:21 | 57.91784 | 15.48795 | 37884 ft | 417 kts | 217° |
| 2026-05-05 17:22 | 57.84414 | 15.40117 | 37893 ft | 417 kts | 217° |
| 2026-05-05 17:22 | 57.79496 | 15.34323 | 37891 ft | 417 kts | 217° |
| 2026-05-05 17:23 | 57.74577 | 15.28549 | 37897 ft | 418 kts | 217° |
| 2026-05-05 17:23 | 57.69649 | 15.22790 | 37894 ft | 418 kts | 217° |
| 2026-05-05 17:24 | 57.64712 | 15.17042 | 37897 ft | 418 kts | 216° |
| 2026-05-05 17:24 | 57.59771 | 15.11307 | 37896 ft | 418 kts | 216° |
| 2026-05-05 17:25 | 57.54826 | 15.05585 | 37901 ft | 418 kts | 216° |
| 2026-05-05 17:25 | 57.49881 | 14.99882 | 37895 ft | 418 kts | 216° |
| 2026-05-05 17:26 | 57.44936 | 14.94198 | 37903 ft | 418 kts | 216° |
| 2026-05-05 17:26 | 57.39986 | 14.88526 | 37893 ft | 418 kts | 216° |